createdAt,value
2018-07-12T00:00:47.359Z,0.00
2018-07-12T00:01:47.531Z,0.00
2018-07-12T00:02:47.717Z,0.00
2018-07-12T00:03:47.901Z,0.00
2018-07-12T00:04:48.083Z,0.00
2018-07-12T00:05:48.258Z,0.00
2018-07-12T00:06:48.433Z,0.00
2018-07-12T00:07:48.616Z,0.00
2018-07-12T00:08:48.803Z,0.00
2018-07-12T00:09:48.988Z,0.00
2018-07-12T00:10:49.169Z,0.00
2018-07-12T00:11:49.347Z,0.00
2018-07-12T00:12:49.524Z,0.00
2018-07-12T00:13:49.700Z,0.00
2018-07-12T00:14:49.893Z,0.00
2018-07-12T00:15:50.075Z,0.00
2018-07-12T00:16:50.253Z,0.00
2018-07-12T00:17:50.440Z,0.00
2018-07-12T00:18:50.616Z,0.00
2018-07-12T00:19:50.803Z,0.00
2018-07-12T00:20:50.984Z,0.00
2018-07-12T00:21:51.157Z,0.00
2018-07-12T00:22:51.338Z,0.00
2018-07-12T00:23:51.518Z,0.00
2018-07-12T00:24:51.697Z,0.00
2018-07-12T00:25:51.881Z,0.00
2018-07-12T00:26:52.056Z,0.00
2018-07-12T00:27:52.241Z,0.00
2018-07-12T00:28:52.413Z,0.00
2018-07-12T00:29:52.602Z,0.00
2018-07-12T00:30:52.780Z,0.00
2018-07-12T00:31:52.958Z,0.00
2018-07-12T00:32:53.136Z,0.00
2018-07-12T00:33:53.311Z,0.00
2018-07-12T00:34:53.488Z,0.00
2018-07-12T00:35:53.689Z,0.00
2018-07-12T00:36:53.883Z,0.00
2018-07-12T00:37:54.069Z,0.00
2018-07-12T00:38:54.245Z,0.00
2018-07-12T00:39:54.431Z,0.00
2018-07-12T00:40:54.608Z,0.00
2018-07-12T00:41:54.795Z,0.00
2018-07-12T00:42:54.966Z,0.00
2018-07-12T00:43:55.143Z,0.00
2018-07-12T00:44:55.321Z,0.00
2018-07-12T00:45:55.506Z,0.00
2018-07-12T00:46:55.698Z,0.00
2018-07-12T00:47:55.870Z,0.00
2018-07-12T00:48:56.047Z,0.00
2018-07-12T00:49:56.245Z,0.00
2018-07-12T00:50:56.424Z,0.00
2018-07-12T00:51:56.603Z,0.00
2018-07-12T00:52:56.778Z,0.00
2018-07-12T00:53:56.959Z,0.00
2018-07-12T00:54:57.152Z,0.00
2018-07-12T00:55:57.347Z,0.00
2018-07-12T00:56:57.522Z,0.00
2018-07-12T00:57:57.712Z,0.00
2018-07-12T00:58:57.886Z,0.00
2018-07-12T00:59:58.062Z,0.00
2018-07-12T01:00:58.241Z,0.00
2018-07-12T01:01:58.442Z,0.00
2018-07-12T01:02:58.627Z,0.00
2018-07-12T01:03:58.806Z,0.00
2018-07-12T01:04:58.983Z,0.00
2018-07-12T01:05:59.178Z,0.00
2018-07-12T01:06:59.358Z,0.00
2018-07-12T01:07:59.560Z,0.00
2018-07-12T01:08:59.734Z,0.00
2018-07-12T01:09:59.938Z,0.00
2018-07-12T01:11:00.126Z,0.00
2018-07-12T01:12:00.301Z,0.00
2018-07-12T01:13:00.545Z,0.00
2018-07-12T01:14:00.662Z,0.00
2018-07-12T01:15:00.847Z,0.00
2018-07-12T01:16:01.028Z,0.00
2018-07-12T01:17:01.208Z,0.00
2018-07-12T01:18:01.395Z,0.00
2018-07-12T01:19:01.570Z,0.00
2018-07-12T01:20:01.755Z,0.00
2018-07-12T01:21:01.928Z,0.00
2018-07-12T01:22:02.105Z,0.00
2018-07-12T01:23:02.287Z,0.00
2018-07-12T01:24:02.468Z,0.00
2018-07-12T01:25:02.694Z,0.00
2018-07-12T01:26:02.824Z,0.00
2018-07-12T01:27:02.998Z,0.00
2018-07-12T01:28:03.172Z,0.00
2018-07-12T01:29:03.376Z,0.00
2018-07-12T01:30:03.572Z,0.00
2018-07-12T01:31:03.756Z,0.00
2018-07-12T01:32:03.936Z,0.00
2018-07-12T01:33:04.115Z,0.00
2018-07-12T01:34:04.294Z,0.00
2018-07-12T01:35:04.472Z,0.00
2018-07-12T01:36:04.665Z,0.00
2018-07-12T01:37:04.835Z,0.00
2018-07-12T01:38:05.017Z,0.00
2018-07-12T01:39:05.198Z,0.00
2018-07-12T01:40:05.377Z,0.00
2018-07-12T01:41:05.548Z,0.00
2018-07-12T01:42:05.724Z,0.00
2018-07-12T01:43:05.909Z,0.00
2018-07-12T01:44:06.081Z,0.00
2018-07-12T01:45:06.271Z,0.00
2018-07-12T01:46:06.458Z,0.00
2018-07-12T01:47:06.637Z,0.00
2018-07-12T01:48:06.828Z,0.00
2018-07-12T01:49:07.006Z,0.00
2018-07-12T01:50:07.184Z,0.00
2018-07-12T01:51:07.379Z,0.00
2018-07-12T01:52:07.559Z,0.00
2018-07-12T01:53:07.748Z,0.00
2018-07-12T01:54:07.926Z,0.00
2018-07-12T01:55:08.098Z,0.00
2018-07-12T01:56:08.273Z,0.00
2018-07-12T01:57:08.468Z,0.00
2018-07-12T01:58:08.634Z,0.00
2018-07-12T01:59:08.807Z,0.00
2018-07-12T02:00:08.988Z,0.00
2018-07-12T02:01:09.167Z,0.00
2018-07-12T02:02:09.340Z,0.00
2018-07-12T02:03:09.517Z,0.00
2018-07-12T02:04:09.694Z,0.00
2018-07-12T02:05:09.873Z,0.00
2018-07-12T02:06:10.068Z,0.00
2018-07-12T02:07:10.246Z,0.00
2018-07-12T02:08:10.429Z,0.00
2018-07-12T02:09:10.605Z,0.00
2018-07-12T02:10:10.793Z,0.00
2018-07-12T02:11:10.971Z,0.00
2018-07-12T02:12:11.142Z,0.00
2018-07-12T02:13:11.313Z,0.00
2018-07-12T02:14:11.489Z,0.00
2018-07-12T02:15:11.671Z,0.00
2018-07-12T02:16:11.846Z,0.00
2018-07-12T02:17:12.025Z,0.00
2018-07-12T02:18:12.203Z,0.00
2018-07-12T02:19:12.378Z,0.00
2018-07-12T02:20:12.557Z,0.00
2018-07-12T02:21:12.742Z,0.00
2018-07-12T02:22:12.919Z,0.00
2018-07-12T02:23:13.099Z,0.00
2018-07-12T02:24:13.286Z,0.00
2018-07-12T02:25:13.461Z,0.00
2018-07-12T02:26:13.637Z,0.00
2018-07-12T02:27:13.815Z,0.00
2018-07-12T02:28:14.000Z,0.00
2018-07-12T02:29:14.174Z,0.00
2018-07-12T02:30:14.360Z,0.00
2018-07-12T02:31:14.536Z,0.00
2018-07-12T02:32:14.714Z,0.00
2018-07-12T02:33:14.886Z,0.00
2018-07-12T02:34:15.069Z,0.00
2018-07-12T02:35:15.337Z,0.00
2018-07-12T02:36:15.430Z,0.00
2018-07-12T02:37:15.621Z,0.00
2018-07-12T02:38:15.808Z,0.00
2018-07-12T02:39:16.005Z,0.00
2018-07-12T02:40:16.183Z,0.00
2018-07-12T02:41:16.367Z,0.00
2018-07-12T02:42:16.544Z,0.00
2018-07-12T02:43:16.733Z,0.00
2018-07-12T02:44:16.917Z,0.00
2018-07-12T02:45:17.111Z,0.00
2018-07-12T02:46:17.284Z,0.00
2018-07-12T02:47:17.470Z,0.00
2018-07-12T02:48:17.647Z,0.00
2018-07-12T02:49:17.836Z,0.00
2018-07-12T02:50:18.016Z,0.00
2018-07-12T02:51:18.183Z,0.00
2018-07-12T02:52:18.356Z,0.00
2018-07-12T02:53:18.540Z,0.00
2018-07-12T02:54:18.714Z,0.00
2018-07-12T02:55:18.883Z,0.00
2018-07-12T02:56:19.067Z,0.00
2018-07-12T02:57:19.242Z,0.00
2018-07-12T02:58:19.425Z,0.00
2018-07-12T02:59:19.627Z,0.00
2018-07-12T03:00:19.815Z,0.00
2018-07-12T03:01:19.987Z,0.00
2018-07-12T03:02:20.168Z,0.00
2018-07-12T03:03:20.342Z,0.00
2018-07-12T03:04:20.518Z,0.00
2018-07-12T03:05:20.695Z,0.00
2018-07-12T03:06:20.887Z,0.00
2018-07-12T03:07:21.065Z,0.00
2018-07-12T03:08:21.241Z,0.00
2018-07-12T03:09:21.426Z,0.00
2018-07-12T03:10:21.603Z,0.00
2018-07-12T03:11:21.785Z,0.00
2018-07-12T03:12:21.959Z,0.00
2018-07-12T03:13:22.138Z,0.00
2018-07-12T03:14:22.323Z,0.00
2018-07-12T03:15:22.498Z,0.00
2018-07-12T03:16:22.683Z,0.00
2018-07-12T03:17:22.871Z,0.00
2018-07-12T03:18:23.052Z,0.00
2018-07-12T03:19:23.223Z,0.00
2018-07-12T03:20:23.406Z,0.00
2018-07-12T03:21:23.596Z,0.00
2018-07-12T03:22:23.783Z,0.00
2018-07-12T03:23:23.963Z,0.00
2018-07-12T03:24:24.151Z,0.00
2018-07-12T03:25:24.324Z,0.00
2018-07-12T03:26:24.512Z,0.00
2018-07-12T03:27:24.689Z,0.00
2018-07-12T03:28:24.872Z,0.00
2018-07-12T03:29:25.055Z,0.00
2018-07-12T03:30:25.229Z,0.00
2018-07-12T03:31:25.415Z,0.00
2018-07-12T03:32:25.589Z,0.00
2018-07-12T03:33:25.770Z,0.00
2018-07-12T03:34:25.955Z,0.00
2018-07-12T03:35:26.138Z,0.00
2018-07-12T03:36:26.319Z,0.00
2018-07-12T03:37:26.498Z,0.00
2018-07-12T03:38:26.679Z,0.00
2018-07-12T03:39:26.860Z,0.00
2018-07-12T03:40:27.116Z,0.00
2018-07-12T03:41:27.205Z,0.00
2018-07-12T03:42:27.386Z,0.00
2018-07-12T03:43:27.573Z,0.00
2018-07-12T03:44:27.754Z,0.00
2018-07-12T03:45:27.949Z,0.00
2018-07-12T03:46:28.128Z,0.00
2018-07-12T03:47:28.306Z,0.00
2018-07-12T03:48:28.502Z,0.00
2018-07-12T03:49:28.684Z,0.00
2018-07-12T03:50:28.871Z,0.00
2018-07-12T03:51:29.058Z,0.00
2018-07-12T03:52:29.244Z,5.63
2018-07-12T03:53:29.481Z,5.63
2018-07-12T03:54:29.605Z,5.63
2018-07-12T03:55:29.790Z,5.63
2018-07-12T03:56:29.969Z,5.63
2018-07-12T03:57:30.146Z,5.63
2018-07-12T03:58:30.325Z,5.63
2018-07-12T03:59:30.512Z,5.63
2018-07-12T04:00:30.682Z,5.63
2018-07-12T04:01:30.871Z,5.63
2018-07-12T04:02:31.054Z,5.63
2018-07-12T04:03:31.237Z,5.63
2018-07-12T04:04:31.405Z,5.63
2018-07-12T04:05:31.584Z,5.63
2018-07-12T04:06:31.769Z,5.63
2018-07-12T04:07:31.938Z,5.63
2018-07-12T04:08:32.114Z,11.25
2018-07-12T04:09:32.293Z,11.25
2018-07-12T04:10:32.473Z,11.25
2018-07-12T04:11:32.661Z,11.25
2018-07-12T04:12:32.838Z,11.25
2018-07-12T04:13:33.032Z,16.88
2018-07-12T04:14:33.200Z,16.88
2018-07-12T04:15:33.374Z,16.88
2018-07-12T04:16:33.553Z,16.88
2018-07-12T04:17:33.750Z,22.50
2018-07-12T04:18:33.942Z,28.13
2018-07-12T04:19:34.126Z,28.13
2018-07-12T04:20:34.315Z,28.13
2018-07-12T04:21:34.496Z,33.75
2018-07-12T04:22:34.748Z,33.75
2018-07-12T04:23:34.898Z,33.75
2018-07-12T04:24:35.079Z,33.75
2018-07-12T04:25:35.266Z,33.75
2018-07-12T04:26:35.458Z,39.38
2018-07-12T04:27:35.642Z,39.38
2018-07-12T04:28:35.820Z,45.00
2018-07-12T04:29:36.008Z,39.38
2018-07-12T04:30:36.196Z,39.38
2018-07-12T04:31:36.386Z,33.75
2018-07-12T04:32:36.978Z,33.75
2018-07-12T04:33:36.779Z,33.75
2018-07-12T04:34:37.006Z,33.75
2018-07-12T04:35:37.269Z,33.75
2018-07-12T04:36:37.331Z,28.13
2018-07-12T04:37:39.232Z,22.50
2018-07-12T04:38:38.542Z,22.50
2018-07-12T04:39:37.793Z,16.88
2018-07-12T04:40:38.220Z,16.88
2018-07-12T04:41:38.109Z,16.88
2018-07-12T04:42:38.296Z,16.88
2018-07-12T04:43:38.499Z,22.50
2018-07-12T04:44:38.663Z,22.50
2018-07-12T04:45:38.845Z,22.50
2018-07-12T04:46:39.141Z,22.50
2018-07-12T04:47:39.236Z,16.88
2018-07-12T04:48:39.473Z,16.88
2018-07-12T04:49:39.922Z,16.88
2018-07-12T04:50:40.222Z,16.88
2018-07-12T04:51:39.643Z,16.88
2018-07-12T04:52:39.825Z,11.25
2018-07-12T04:53:40.020Z,16.88
2018-07-12T04:54:40.224Z,16.88
2018-07-12T04:55:41.270Z,16.88
2018-07-12T04:56:41.638Z,16.88
2018-07-12T04:57:40.999Z,22.50
2018-07-12T04:58:40.966Z,28.13
2018-07-12T04:59:41.076Z,33.75
2018-07-12T05:00:41.476Z,33.75
2018-07-12T05:01:41.522Z,56.25
2018-07-12T05:02:41.653Z,78.75
2018-07-12T05:03:41.691Z,95.63
2018-07-12T05:04:41.885Z,106.88
2018-07-12T05:05:42.260Z,123.75
2018-07-12T05:06:42.265Z,112.50
2018-07-12T05:07:42.482Z,106.88
2018-07-12T05:08:42.671Z,106.88
2018-07-12T05:09:42.853Z,101.25
2018-07-12T05:10:43.038Z,101.25
2018-07-12T05:11:43.220Z,112.50
2018-07-12T05:12:43.431Z,112.50
2018-07-12T05:13:43.619Z,112.50
2018-07-12T05:14:43.803Z,118.13
2018-07-12T05:15:43.988Z,118.13
2018-07-12T05:16:44.184Z,118.13
2018-07-12T05:17:44.386Z,123.75
2018-07-12T05:18:44.608Z,129.38
2018-07-12T05:19:47.443Z,129.38
2018-07-12T05:20:46.257Z,135.00
2018-07-12T05:21:46.728Z,146.25
2018-07-12T05:22:46.647Z,157.50
2018-07-12T05:23:48.550Z,157.50
2018-07-12T05:24:48.424Z,151.88
2018-07-12T05:25:46.361Z,146.25
2018-07-12T05:26:46.901Z,146.25
2018-07-12T05:27:49.048Z,140.63
2018-07-12T05:28:47.309Z,135.00
2018-07-12T05:29:47.927Z,135.00
2018-07-12T05:30:48.655Z,140.63
2018-07-12T05:31:47.734Z,151.88
2018-07-12T05:32:47.518Z,163.13
2018-07-12T05:33:48.339Z,146.25
2018-07-12T05:34:48.312Z,140.63
2018-07-12T05:35:47.478Z,123.75
2018-07-12T05:36:47.663Z,112.50
2018-07-12T05:37:47.840Z,84.38
2018-07-12T05:38:48.023Z,84.38
2018-07-12T05:39:48.202Z,84.38
2018-07-12T05:40:48.382Z,84.38
2018-07-12T05:41:48.583Z,84.38
2018-07-12T05:42:48.766Z,78.75
2018-07-12T05:43:48.949Z,73.13
2018-07-12T05:44:49.147Z,73.13
2018-07-12T05:45:49.334Z,73.13
2018-07-12T05:46:49.618Z,67.50
2018-07-12T05:47:51.116Z,61.88
2018-07-12T05:48:49.893Z,61.88
2018-07-12T05:49:50.090Z,67.50
2018-07-12T05:50:50.286Z,73.13
2018-07-12T05:51:50.471Z,84.38
2018-07-12T05:52:50.647Z,90.00
2018-07-12T05:53:50.914Z,101.25
2018-07-12T05:54:50.953Z,123.75
2018-07-12T05:55:51.146Z,123.75
2018-07-12T05:56:51.320Z,151.88
2018-07-12T05:57:51.593Z,180.00
2018-07-12T05:58:51.650Z,191.25
2018-07-12T05:59:51.832Z,185.63
2018-07-12T06:00:52.012Z,185.63
2018-07-12T06:01:52.197Z,174.38
2018-07-12T06:02:52.398Z,157.50
2018-07-12T06:03:52.568Z,123.75
2018-07-12T06:04:52.961Z,118.13
2018-07-12T06:05:52.892Z,129.38
2018-07-12T06:06:53.073Z,118.13
2018-07-12T06:07:53.265Z,118.13
2018-07-12T06:08:53.494Z,157.50
2018-07-12T06:09:53.629Z,157.50
2018-07-12T06:10:54.036Z,140.63
2018-07-12T06:11:53.974Z,168.75
2018-07-12T06:12:54.162Z,168.75
2018-07-12T06:13:54.524Z,168.75
2018-07-12T06:14:54.448Z,163.13
2018-07-12T06:15:54.762Z,140.63
2018-07-12T06:16:54.812Z,151.88
2018-07-12T06:17:55.048Z,129.38
2018-07-12T06:18:55.149Z,112.50
2018-07-12T06:19:55.296Z,123.75
2018-07-12T06:20:55.597Z,135.00
2018-07-12T06:21:55.740Z,129.38
2018-07-12T06:22:55.858Z,135.00
2018-07-12T06:23:55.975Z,157.50
2018-07-12T06:24:56.157Z,129.38
2018-07-12T06:25:56.344Z,112.50
2018-07-12T06:26:56.523Z,101.25
2018-07-12T06:27:56.704Z,90.00
2018-07-12T06:28:56.885Z,90.00
2018-07-12T06:29:57.121Z,90.00
2018-07-12T06:30:57.253Z,90.00
2018-07-12T06:31:57.432Z,101.25
2018-07-12T06:32:57.621Z,106.88
2018-07-12T06:33:57.801Z,106.88
2018-07-12T06:34:57.977Z,101.25
2018-07-12T06:35:58.168Z,129.38
2018-07-12T06:36:58.361Z,135.00
2018-07-12T06:37:58.578Z,146.25
2018-07-12T06:38:58.751Z,129.38
2018-07-12T06:39:58.940Z,135.00
2018-07-12T06:40:59.125Z,230.63
2018-07-12T06:41:59.352Z,247.50
2018-07-12T06:42:59.409Z,230.63
2018-07-12T06:43:59.595Z,675.00
2018-07-12T06:44:59.773Z,894.38
2018-07-12T06:45:59.965Z,1198.13
2018-07-12T06:47:00.314Z,1243.13
2018-07-12T06:48:00.361Z,1305.00
2018-07-12T06:49:00.539Z,1513.13
2018-07-12T06:50:00.796Z,646.88
2018-07-12T06:51:00.840Z,416.25
2018-07-12T06:52:01.031Z,393.75
2018-07-12T06:53:01.231Z,416.25
2018-07-12T06:54:01.406Z,1462.50
2018-07-12T06:55:01.603Z,495.00
2018-07-12T06:56:01.787Z,506.25
2018-07-12T06:57:01.967Z,1119.38
2018-07-12T06:58:02.170Z,309.38
2018-07-12T06:59:02.372Z,286.88
2018-07-12T07:00:02.568Z,258.75
2018-07-12T07:01:02.757Z,270.00
2018-07-12T07:02:02.941Z,292.50
2018-07-12T07:03:03.131Z,281.25
2018-07-12T07:04:03.340Z,298.13
2018-07-12T07:05:03.531Z,320.63
2018-07-12T07:06:03.759Z,270.00
2018-07-12T07:07:03.921Z,298.13
2018-07-12T07:08:04.102Z,500.63
2018-07-12T07:09:04.491Z,365.63
2018-07-12T07:10:04.411Z,421.88
2018-07-12T07:11:04.599Z,326.25
2018-07-12T07:12:05.063Z,523.13
2018-07-12T07:13:05.167Z,466.88
2018-07-12T07:14:05.125Z,360.00
2018-07-12T07:15:05.341Z,270.00
2018-07-12T07:16:05.591Z,219.38
2018-07-12T07:17:05.651Z,202.50
2018-07-12T07:18:06.434Z,337.50
2018-07-12T07:19:06.812Z,1119.38
2018-07-12T07:20:06.435Z,1136.25
2018-07-12T07:21:08.474Z,405.00
2018-07-12T07:22:07.827Z,309.38
2018-07-12T07:23:07.290Z,354.38
2018-07-12T07:24:08.257Z,309.38
2018-07-12T07:25:09.405Z,236.25
2018-07-12T07:26:09.293Z,174.38
2018-07-12T07:27:07.316Z,157.50
2018-07-12T07:28:08.315Z,191.25
2018-07-12T07:29:08.624Z,219.38
2018-07-12T07:30:08.578Z,444.38
2018-07-12T07:31:09.787Z,230.63
2018-07-12T07:32:08.766Z,191.25
2018-07-12T07:33:09.680Z,151.88
2018-07-12T07:34:08.684Z,247.50
2018-07-12T07:35:09.848Z,1423.13
2018-07-12T07:36:09.540Z,1153.13
2018-07-12T07:37:10.749Z,523.13
2018-07-12T07:38:09.873Z,247.50
2018-07-12T07:39:09.939Z,196.88
2018-07-12T07:40:10.223Z,191.25
2018-07-12T07:41:10.270Z,180.00
2018-07-12T07:42:10.798Z,157.50
2018-07-12T07:43:10.744Z,140.63
2018-07-12T07:44:10.965Z,123.75
2018-07-12T07:45:12.040Z,112.50
2018-07-12T07:46:10.788Z,135.00
2018-07-12T07:47:10.701Z,174.38
2018-07-12T07:48:11.781Z,191.25
2018-07-12T07:49:12.183Z,168.75
2018-07-12T07:50:14.685Z,163.13
2018-07-12T07:51:12.597Z,174.38
2018-07-12T07:52:12.514Z,174.38
2018-07-12T07:53:11.844Z,174.38
2018-07-12T07:54:11.888Z,157.50
2018-07-12T07:55:12.793Z,140.63
2018-07-12T07:56:13.804Z,135.00
2018-07-12T07:57:12.484Z,151.88
2018-07-12T07:58:13.231Z,163.13
2018-07-12T07:59:13.859Z,163.13
2018-07-12T08:00:12.894Z,174.38
2018-07-12T08:01:13.077Z,191.25
2018-07-12T08:02:13.431Z,174.38
2018-07-12T08:03:13.494Z,225.00
2018-07-12T08:04:13.678Z,275.63
2018-07-12T08:05:13.871Z,270.00
2018-07-12T08:06:14.074Z,241.88
2018-07-12T08:07:14.315Z,230.63
2018-07-12T08:08:14.366Z,219.38
2018-07-12T08:09:14.555Z,213.75
2018-07-12T08:10:14.735Z,258.75
2018-07-12T08:11:14.930Z,219.38
2018-07-12T08:12:15.159Z,219.38
2018-07-12T08:13:15.310Z,275.63
2018-07-12T08:14:15.501Z,466.88
2018-07-12T08:15:19.147Z,382.50
2018-07-12T08:16:15.922Z,388.13
2018-07-12T08:17:16.045Z,348.75
2018-07-12T08:18:16.276Z,298.13
2018-07-12T08:19:16.336Z,281.25
2018-07-12T08:20:17.021Z,264.38
2018-07-12T08:21:16.844Z,230.63
2018-07-12T08:22:17.137Z,219.38
2018-07-12T08:23:17.232Z,208.13
2018-07-12T08:24:17.337Z,208.13
2018-07-12T08:25:17.484Z,191.25
2018-07-12T08:26:17.727Z,185.63
2018-07-12T08:27:17.796Z,180.00
2018-07-12T08:28:17.980Z,191.25
2018-07-12T08:29:18.163Z,157.50
2018-07-12T08:30:18.389Z,135.00
2018-07-12T08:31:18.762Z,135.00
2018-07-12T08:32:18.931Z,140.63
2018-07-12T08:33:18.932Z,151.88
2018-07-12T08:34:19.112Z,163.13
2018-07-12T08:35:19.295Z,174.38
2018-07-12T08:36:19.566Z,174.38
2018-07-12T08:37:19.663Z,174.38
2018-07-12T08:38:19.855Z,157.50
2018-07-12T08:39:20.033Z,146.25
2018-07-12T08:40:20.210Z,140.63
2018-07-12T08:41:20.396Z,135.00
2018-07-12T08:42:20.601Z,140.63
2018-07-12T08:43:20.766Z,151.88
2018-07-12T08:44:20.945Z,163.13
2018-07-12T08:45:21.126Z,163.13
2018-07-12T08:46:21.433Z,174.38
2018-07-12T08:47:21.433Z,191.25
2018-07-12T08:48:21.640Z,275.63
2018-07-12T08:49:21.818Z,258.75
2018-07-12T08:50:25.518Z,219.38
2018-07-12T08:51:22.171Z,180.00
2018-07-12T08:52:22.250Z,157.50
2018-07-12T08:53:22.431Z,146.25
2018-07-12T08:54:22.621Z,135.00
2018-07-12T08:55:22.804Z,129.38
2018-07-12T08:56:23.060Z,118.13
2018-07-12T08:57:23.207Z,118.13
2018-07-12T08:58:23.403Z,123.75
2018-07-12T08:59:23.571Z,129.38
2018-07-12T09:00:23.833Z,135.00
2018-07-12T09:01:23.906Z,146.25
2018-07-12T09:02:24.107Z,163.13
2018-07-12T09:03:24.300Z,185.63
2018-07-12T09:04:24.485Z,196.88
2018-07-12T09:05:24.669Z,191.25
2018-07-12T09:06:24.851Z,157.50
2018-07-12T09:07:25.034Z,135.00
2018-07-12T09:08:25.225Z,129.38
2018-07-12T09:09:25.404Z,129.38
2018-07-12T09:10:25.597Z,135.00
2018-07-12T09:11:25.789Z,129.38
2018-07-12T09:12:25.979Z,140.63
2018-07-12T09:13:26.159Z,146.25
2018-07-12T09:14:26.351Z,151.88
2018-07-12T09:15:26.531Z,151.88
2018-07-12T09:16:26.712Z,146.25
2018-07-12T09:17:26.897Z,140.63
2018-07-12T09:18:28.961Z,146.25
2018-07-12T09:19:27.230Z,157.50
2018-07-12T09:20:27.420Z,168.75
2018-07-12T09:21:27.597Z,208.13
2018-07-12T09:22:27.777Z,253.13
2018-07-12T09:23:27.978Z,286.88
2018-07-12T09:24:28.151Z,264.38
2018-07-12T09:25:28.384Z,230.63
2018-07-12T09:26:28.531Z,202.50
2018-07-12T09:27:28.706Z,191.25
2018-07-12T09:28:28.901Z,196.88
2018-07-12T09:29:29.097Z,202.50
2018-07-12T09:30:29.343Z,208.13
2018-07-12T09:31:29.509Z,213.75
2018-07-12T09:32:29.693Z,230.63
2018-07-12T09:33:29.902Z,281.25
2018-07-12T09:34:31.260Z,309.38
2018-07-12T09:35:30.259Z,315.00
2018-07-12T09:36:30.452Z,309.38
2018-07-12T09:37:30.649Z,286.88
2018-07-12T09:38:30.852Z,292.50
2018-07-12T09:39:31.092Z,320.63
2018-07-12T09:40:31.375Z,315.00
2018-07-12T09:41:31.354Z,315.00
2018-07-12T09:42:31.539Z,309.38
2018-07-12T09:43:31.729Z,292.50
2018-07-12T09:44:32.116Z,292.50
2018-07-12T09:45:32.097Z,624.38
2018-07-12T09:46:32.282Z,275.63
2018-07-12T09:47:32.529Z,241.88
2018-07-12T09:48:32.670Z,241.88
2018-07-12T09:49:32.837Z,230.63
2018-07-12T09:50:33.034Z,225.00
2018-07-12T09:51:33.217Z,219.38
2018-07-12T09:52:34.234Z,196.88
2018-07-12T09:53:33.602Z,191.25
2018-07-12T09:54:33.790Z,185.63
2018-07-12T09:55:33.990Z,180.00
2018-07-12T09:56:34.232Z,168.75
2018-07-12T09:57:34.355Z,168.75
2018-07-12T09:58:35.146Z,174.38
2018-07-12T09:59:34.714Z,298.13
2018-07-12T10:00:34.913Z,388.13
2018-07-12T10:01:35.090Z,326.25
2018-07-12T10:02:35.277Z,343.13
2018-07-12T10:03:35.457Z,326.25
2018-07-12T10:04:35.780Z,320.63
2018-07-12T10:05:35.871Z,455.63
2018-07-12T10:06:36.066Z,360.00
2018-07-12T10:07:36.250Z,337.50
2018-07-12T10:08:36.449Z,393.75
2018-07-12T10:09:36.873Z,376.88
2018-07-12T10:10:36.892Z,568.13
2018-07-12T10:11:37.023Z,326.25
2018-07-12T10:12:37.206Z,371.25
2018-07-12T10:13:37.389Z,416.25
2018-07-12T10:14:37.569Z,326.25
2018-07-12T10:15:37.753Z,556.88
2018-07-12T10:16:38.087Z,405.00
2018-07-12T10:17:38.141Z,371.25
2018-07-12T10:18:38.332Z,343.13
2018-07-12T10:19:38.534Z,343.13
2018-07-12T10:20:38.706Z,354.38
2018-07-12T10:21:38.891Z,348.75
2018-07-12T10:22:39.077Z,354.38
2018-07-12T10:23:39.256Z,343.13
2018-07-12T10:24:39.440Z,360.00
2018-07-12T10:25:39.633Z,320.63
2018-07-12T10:26:39.826Z,326.25
2018-07-12T10:27:40.018Z,326.25
2018-07-12T10:28:40.249Z,303.75
2018-07-12T10:29:40.370Z,270.00
2018-07-12T10:30:40.510Z,236.25
2018-07-12T10:31:40.709Z,208.13
2018-07-12T10:32:40.900Z,202.50
2018-07-12T10:33:41.123Z,196.88
2018-07-12T10:34:41.355Z,180.00
2018-07-12T10:35:41.420Z,174.38
2018-07-12T10:36:41.619Z,180.00
2018-07-12T10:37:41.808Z,157.50
2018-07-12T10:38:42.460Z,163.13
2018-07-12T10:39:42.206Z,185.63
2018-07-12T10:40:42.391Z,225.00
2018-07-12T10:41:42.570Z,331.88
2018-07-12T10:42:42.752Z,382.50
2018-07-12T10:43:42.944Z,376.88
2018-07-12T10:44:43.145Z,360.00
2018-07-12T10:45:43.327Z,343.13
2018-07-12T10:46:45.045Z,292.50
2018-07-12T10:47:43.707Z,247.50
2018-07-12T10:48:43.906Z,213.75
2018-07-12T10:49:44.142Z,191.25
2018-07-12T10:50:44.381Z,180.00
2018-07-12T10:51:48.310Z,168.75
2018-07-12T10:52:44.547Z,151.88
2018-07-12T10:53:44.733Z,140.63
2018-07-12T10:54:44.919Z,151.88
2018-07-12T10:55:45.102Z,185.63
2018-07-12T10:56:45.291Z,270.00
2018-07-12T10:57:45.488Z,298.13
2018-07-12T10:58:45.672Z,320.63
2018-07-12T10:59:45.860Z,315.00
2018-07-12T11:00:46.067Z,298.13
2018-07-12T11:01:46.254Z,281.25
2018-07-12T11:02:46.486Z,241.88
2018-07-12T11:03:46.650Z,202.50
2018-07-12T11:04:46.847Z,168.75
2018-07-12T11:05:47.011Z,151.88
2018-07-12T11:06:47.199Z,140.63
2018-07-12T11:07:47.388Z,140.63
2018-07-12T11:08:47.576Z,163.13
2018-07-12T11:09:47.767Z,219.38
2018-07-12T11:10:48.327Z,270.00
2018-07-12T11:11:51.782Z,298.13
2018-07-12T11:12:48.292Z,315.00
2018-07-12T11:13:48.484Z,303.75
2018-07-12T11:14:48.691Z,315.00
2018-07-12T11:15:48.916Z,331.88
2018-07-12T11:16:50.915Z,309.38
2018-07-12T11:17:49.290Z,264.38
2018-07-12T11:18:49.471Z,213.75
2018-07-12T11:19:49.860Z,180.00
2018-07-12T11:20:50.379Z,157.50
2018-07-12T11:21:50.077Z,151.88
2018-07-12T11:22:50.262Z,151.88
2018-07-12T11:23:50.488Z,180.00
2018-07-12T11:24:50.693Z,225.00
2018-07-12T11:25:50.747Z,264.38
2018-07-12T11:26:50.939Z,275.63
2018-07-12T11:27:51.129Z,286.88
2018-07-12T11:28:51.324Z,309.38
2018-07-12T11:29:51.514Z,343.13
2018-07-12T11:30:51.733Z,365.63
2018-07-12T11:31:51.915Z,360.00
2018-07-12T11:32:52.104Z,326.25
2018-07-12T11:33:52.295Z,303.75
2018-07-12T11:34:52.557Z,275.63
2018-07-12T11:35:52.616Z,270.00
2018-07-12T11:36:54.534Z,281.25
2018-07-12T11:37:52.920Z,298.13
2018-07-12T11:38:53.106Z,309.38
2018-07-12T11:39:53.303Z,281.25
2018-07-12T11:40:53.495Z,236.25
2018-07-12T11:41:53.693Z,202.50
2018-07-12T11:42:53.871Z,185.63
2018-07-12T11:43:54.085Z,174.38
2018-07-12T11:44:54.553Z,174.38
2018-07-12T11:45:54.485Z,185.63
2018-07-12T11:46:54.713Z,213.75
2018-07-12T11:47:54.782Z,213.75
2018-07-12T11:48:54.981Z,191.25
2018-07-12T11:49:55.318Z,168.75
2018-07-12T11:50:55.405Z,146.25
2018-07-12T11:51:55.553Z,129.38
2018-07-12T11:52:57.764Z,112.50
2018-07-12T11:53:58.753Z,95.63
2018-07-12T11:54:57.431Z,84.38
2018-07-12T11:55:58.723Z,78.75
2018-07-12T11:56:59.098Z,78.75
2018-07-12T11:57:58.982Z,78.75
2018-07-12T11:58:59.750Z,84.38
2018-07-12T11:59:59.523Z,112.50
2018-07-12T12:00:58.412Z,106.88
2018-07-12T12:01:57.885Z,151.88
2018-07-12T12:02:57.511Z,191.25
2018-07-12T12:03:57.811Z,213.75
2018-07-12T12:04:59.947Z,230.63
2018-07-12T12:06:01.021Z,230.63
2018-07-12T12:06:58.764Z,213.75
2018-07-12T12:07:58.878Z,208.13
2018-07-12T12:08:58.736Z,196.88
2018-07-12T12:09:59.614Z,191.25
2018-07-12T12:10:59.462Z,180.00
2018-07-12T12:11:59.392Z,157.50
2018-07-12T12:13:00.345Z,157.50
2018-07-12T12:14:02.076Z,151.88
2018-07-12T12:15:00.401Z,151.88
2018-07-12T12:16:00.158Z,168.75
2018-07-12T12:17:00.147Z,191.25
2018-07-12T12:18:01.316Z,180.00
2018-07-12T12:19:02.045Z,157.50
2018-07-12T12:20:02.071Z,146.25
2018-07-12T12:21:01.437Z,135.00
2018-07-12T12:22:01.771Z,129.38
2018-07-12T12:23:02.819Z,135.00
2018-07-12T12:24:02.545Z,140.63
2018-07-12T12:25:02.346Z,140.63
2018-07-12T12:26:02.729Z,146.25
2018-07-12T12:27:02.443Z,157.50
2018-07-12T12:28:02.739Z,180.00
2018-07-12T12:29:02.874Z,191.25
2018-07-12T12:30:02.198Z,230.63
2018-07-12T12:31:02.385Z,241.88
2018-07-12T12:32:02.961Z,253.13
2018-07-12T12:33:02.780Z,270.00
2018-07-12T12:34:02.988Z,292.50
2018-07-12T12:35:03.828Z,315.00
2018-07-12T12:36:04.128Z,331.88
2018-07-12T12:37:04.255Z,331.88
2018-07-12T12:38:04.250Z,331.88
2018-07-12T12:39:04.168Z,331.88
2018-07-12T12:40:04.720Z,331.88
2018-07-12T12:41:04.536Z,309.38
2018-07-12T12:42:05.235Z,286.88
2018-07-12T12:43:05.101Z,258.75
2018-07-12T12:44:05.150Z,236.25
2018-07-12T12:45:05.031Z,219.38
2018-07-12T12:46:05.422Z,202.50
2018-07-12T12:47:05.771Z,196.88
2018-07-12T12:48:07.691Z,191.25
2018-07-12T12:49:05.822Z,202.50